Time;durP1;ratioP1;P1;durP2;ratioP2;P2;SDS_P1;SDS_P2;PMS_P1;PMS_P2;Temp;Humidity;BMP_temperature;BMP_pressure;BME280_temperature;BME280_humidity;BME280_pressure;Samples;Min_cycle;Max_cycle;Signal;HPM_P1;HPM_P2
2022/11/15 00:02:19;;;;;;;0.70;0.70;;;;;;;;;;5051629;28;20458;-81
2022/11/15 00:05:05;;;;;;;0.70;0.60;;;;;;;;;;5052170;28;20936;-81
2022/11/15 00:07:51;;;;;;;0.63;0.60;;;;;;;;;;5052577;28;21274;-82
2022/11/15 00:10:41;;;;;;;0.70;0.60;;;;;;;;;;5057785;28;20423;-81
2022/11/15 00:13:26;;;;;;;1.30;1.20;;;;;;;;;;5063276;28;20446;-80
2022/11/15 00:16:12;;;;;;;0.70;0.60;;;;;;;;;;5053460;28;20416;-82
2022/11/15 00:19:00;;;;;;;0.70;0.70;;;;;;;;;;5055278;28;20469;-81
2022/11/15 00:21:48;;;;;;;0.70;0.70;;;;;;;;;;5053451;28;20471;-82
2022/11/15 00:24:33;;;;;;;0.67;0.60;;;;;;;;;;5050629;28;20884;-81
2022/11/15 00:27:20;;;;;;;0.70;0.67;;;;;;;;;;5054077;28;20512;-82
2022/11/15 00:30:06;;;;;;;0.90;0.90;;;;;;;;;;5057398;28;20959;-81
2022/11/15 00:32:52;;;;;;;0.60;0.60;;;;;;;;;;5064581;28;20451;-82
2022/11/15 00:35:40;;;;;;;0.70;0.70;;;;;;;;;;5054708;28;20992;-81
2022/11/15 00:38:29;;;;;;;0.70;0.70;;;;;;;;;;5064892;28;20424;-81
2022/11/15 00:41:15;;;;;;;0.70;0.60;;;;;;;;;;5049799;28;20449;-81
2022/11/15 00:44:00;;;;;;;0.70;0.70;;;;;;;;;;5062513;28;20442;-81
2022/11/15 00:46:47;;;;;;;0.87;0.80;;;;;;;;;;5053843;28;20434;-82
2022/11/15 00:49:32;;;;;;;0.70;0.60;;;;;;;;;;5061104;28;20775;-81
2022/11/15 00:52:19;;;;;;;0.80;0.80;;;;;;;;;;5055800;28;20549;-81
2022/11/15 00:55:04;;;;;;;0.70;0.70;;;;;;;;;;5059353;28;20549;-81
2022/11/15 00:57:50;;;;;;;1.00;0.97;;;;;;;;;;5063864;28;20563;-82
2022/11/15 01:00:35;;;;;;;0.70;0.60;;;;;;;;;;5065110;28;20454;-82
2022/11/15 01:03:20;;;;;;;0.70;0.70;;;;;;;;;;5065823;28;20433;-83
2022/11/15 01:06:08;;;;;;;0.70;0.70;;;;;;;;;;5072679;28;20550;-81
2022/11/15 01:08:54;;;;;;;1.13;0.97;;;;;;;;;;5067018;28;20445;-82
2022/11/15 01:11:40;;;;;;;0.80;0.80;;;;;;;;;;5054636;28;20789;-83
2022/11/15 01:14:26;;;;;;;0.70;0.67;;;;;;;;;;5054706;28;20428;-81
2022/11/15 01:17:11;;;;;;;0.70;0.70;;;;;;;;;;5053061;28;20423;-83
2022/11/15 01:19:56;;;;;;;0.70;0.70;;;;;;;;;;5042436;28;20475;-82
2022/11/15 01:22:42;;;;;;;0.70;0.70;;;;;;;;;;5056738;28;20445;-85
2022/11/15 01:25:29;;;;;;;0.70;0.70;;;;;;;;;;5053222;28;20500;-83
2022/11/15 01:28:14;;;;;;;1.03;0.93;;;;;;;;;;5060039;28;20516;-82
2022/11/15 01:30:59;;;;;;;0.70;0.60;;;;;;;;;;5052920;28;20418;-83
2022/11/15 01:33:45;;;;;;;0.80;0.80;;;;;;;;;;5060505;28;20443;-84
2022/11/15 01:36:34;;;;;;;0.70;0.70;;;;;;;;;;5054079;28;20449;-83
2022/11/15 01:39:20;;;;;;;0.70;0.70;;;;;;;;;;5063486;28;20473;-81
2022/11/15 01:42:09;;;;;;;0.70;0.70;;;;;;;;;;5053847;28;20508;-81
2022/11/15 01:44:54;;;;;;;0.80;0.80;;;;;;;;;;5065520;28;20559;-84
2022/11/15 01:47:41;;;;;;;0.70;0.60;;;;;;;;;;5058914;28;20423;-82
2022/11/15 01:50:28;;;;;;;4.03;2.43;;;;;;;;;;5064141;28;20485;-84
2022/11/15 01:53:14;;;;;;;0.70;0.70;;;;;;;;;;5062598;28;20832;-81
2022/11/15 01:56:01;;;;;;;0.70;0.70;;;;;;;;;;5048490;28;20440;-81
2022/11/15 01:58:49;;;;;;;0.70;0.60;;;;;;;;;;5049994;28;20549;-81
2022/11/15 02:01:34;;;;;;;0.70;0.70;;;;;;;;;;5055426;28;20484;-81
2022/11/15 02:04:21;;;;;;;2.00;1.80;;;;;;;;;;5050518;28;20443;-81
2022/11/15 02:07:08;;;;;;;0.80;0.80;;;;;;;;;;5061431;28;21022;-82
2022/11/15 02:09:54;;;;;;;0.77;0.77;;;;;;;;;;5066287;28;20577;-82
2022/11/15 02:12:40;;;;;;;0.70;0.67;;;;;;;;;;5054534;28;20937;-82
2022/11/15 02:15:32;;;;;;;1.03;0.93;;;;;;;;;;5069259;28;20434;-81
2022/11/15 02:18:22;;;;;;;0.90;0.90;;;;;;;;;;5064513;28;20472;-81
2022/11/15 02:21:16;;;;;;;0.90;0.87;;;;;;;;;;5057338;28;20501;-80
2022/11/15 02:24:20;;;;;;;0.80;0.80;;;;;;;;;;5061624;28;20438;-81
2022/11/15 02:27:23;;;;;;;1.17;1.17;;;;;;;;;;5064217;28;20419;-80
2022/11/15 02:30:23;;;;;;;0.90;0.90;;;;;;;;;;5062060;28;20895;-81
2022/11/15 02:33:13;;;;;;;1.07;1.00;;;;;;;;;;5055751;28;20434;-80
2022/11/15 02:35:59;;;;;;;1.00;0.90;;;;;;;;;;5053088;28;20530;-80
2022/11/15 02:38:47;;;;;;;0.80;0.80;;;;;;;;;;5065121;28;20469;-80
2022/11/15 02:41:38;;;;;;;0.70;0.70;;;;;;;;;;5059300;28;20513;-81
2022/11/15 02:44:25;;;;;;;0.73;0.73;;;;;;;;;;5062497;28;21004;-82
2022/11/15 02:47:16;;;;;;;0.90;0.90;;;;;;;;;;5051665;28;20434;-81
2022/11/15 02:50:07;;;;;;;0.80;0.80;;;;;;;;;;5063188;28;20563;-81
2022/11/15 02:52:55;;;;;;;0.80;0.80;;;;;;;;;;5052791;28;20464;-83
2022/11/15 02:55:43;;;;;;;0.80;0.80;;;;;;;;;;5039894;28;20450;-81
2022/11/15 02:58:45;;;;;;;0.73;0.73;;;;;;;;;;5054989;28;20478;-82
2022/11/15 03:01:39;;;;;;;0.97;0.97;;;;;;;;;;5043304;28;20838;-80
2022/11/15 03:04:30;;;;;;;0.70;0.60;;;;;;;;;;5045487;28;20779;-82
2022/11/15 03:07:24;;;;;;;0.70;0.70;;;;;;;;;;5059893;28;20470;-81
2022/11/15 03:10:17;;;;;;;1.40;1.30;;;;;;;;;;5064620;28;20443;-83
2022/11/15 03:13:08;;;;;;;0.90;0.90;;;;;;;;;;5039995;28;20433;-81
2022/11/15 03:16:03;;;;;;;0.70;0.70;;;;;;;;;;5057251;28;20433;-81
2022/11/15 03:18:54;;;;;;;0.80;0.80;;;;;;;;;;5050553;28;20504;-83
2022/11/15 03:21:44;;;;;;;0.70;0.63;;;;;;;;;;5052159;28;20482;-82
2022/11/15 03:24:34;;;;;;;0.80;0.80;;;;;;;;;;5067488;28;20445;-82
2022/11/15 03:27:23;;;;;;;0.70;0.70;;;;;;;;;;5057555;28;20938;-83
2022/11/15 03:30:09;;;;;;;0.70;0.70;;;;;;;;;;5055530;28;20633;-82
2022/11/15 03:32:59;;;;;;;1.10;0.90;;;;;;;;;;5063162;28;20430;-81
2022/11/15 03:35:47;;;;;;;0.80;0.80;;;;;;;;;;5057390;28;20466;-83
2022/11/15 03:38:35;;;;;;;0.70;0.70;;;;;;;;;;5064865;28;20800;-82
2022/11/15 03:41:23;;;;;;;1.03;0.93;;;;;;;;;;5054780;28;20469;-82
2022/11/15 03:44:13;;;;;;;0.70;0.70;;;;;;;;;;5049385;28;20502;-84
2022/11/15 03:47:03;;;;;;;0.70;0.70;;;;;;;;;;5055673;28;20556;-79
2022/11/15 03:49:51;;;;;;;0.70;0.67;;;;;;;;;;5044562;28;20505;-80
2022/11/15 03:52:37;;;;;;;0.70;0.70;;;;;;;;;;5054225;28;20422;-84
2022/11/15 03:55:24;;;;;;;0.80;0.80;;;;;;;;;;5067410;28;20518;-85
2022/11/15 03:58:10;;;;;;;0.70;0.60;;;;;;;;;;5054538;28;20433;-84
2022/11/15 04:00:56;;;;;;;0.70;0.60;;;;;;;;;;5053548;28;20475;-82
2022/11/15 04:03:51;;;;;;;1.90;1.20;;;;;;;;;;5054168;28;20491;-84
2022/11/15 04:06:39;;;;;;;0.70;0.70;;;;;;;;;;5052302;28;20455;-84
2022/11/15 04:09:32;;;;;;;0.70;0.63;;;;;;;;;;5066130;28;20580;-83
2022/11/15 04:12:33;;;;;;;0.70;0.70;;;;;;;;;;5055373;28;20586;-83
2022/11/15 04:15:20;;;;;;;0.70;0.60;;;;;;;;;;5058089;28;20476;-81
2022/11/15 04:18:08;;;;;;;0.83;0.83;;;;;;;;;;5057104;28;20413;-81
2022/11/15 04:24:12;;;;;;;0.80;0.80;;;;;;;;;;5061843;28;20427;-84
2022/11/15 04:26:58;;;;;;;0.87;0.87;;;;;;;;;;5053684;28;20929;-83
2022/11/15 04:29:45;;;;;;;0.70;0.70;;;;;;;;;;5059309;28;20503;-85
2022/11/15 04:32:31;;;;;;;0.80;0.80;;;;;;;;;;5066598;28;20445;-85
2022/11/15 04:35:16;;;;;;;0.70;0.70;;;;;;;;;;5052802;28;21041;-83
2022/11/15 04:38:04;;;;;;;0.73;0.73;;;;;;;;;;5058968;28;20422;-85
2022/11/15 04:40:49;;;;;;;0.70;0.70;;;;;;;;;;5056321;28;20457;-84
2022/11/15 04:43:36;;;;;;;0.70;0.67;;;;;;;;;;5051727;28;20939;-81
2022/11/15 04:46:24;;;;;;;0.70;0.60;;;;;;;;;;5055528;28;20428;-84
2022/11/15 04:49:10;;;;;;;0.70;0.70;;;;;;;;;;5068288;28;20421;-83
2022/11/15 04:51:56;;;;;;;1.00;1.00;;;;;;;;;;5051382;28;20542;-84
2022/11/15 04:54:42;;;;;;;0.70;0.70;;;;;;;;;;5063194;28;20447;-85
2022/11/15 04:57:29;;;;;;;0.70;0.70;;;;;;;;;;5066226;28;20998;-86
2022/11/15 05:00:16;;;;;;;1.00;1.00;;;;;;;;;;5056199;28;20427;-83
2022/11/15 05:06:08;;;;;;;0.70;0.70;;;;;;;;;;5065797;28;20455;-82
2022/11/15 05:08:54;;;;;;;0.70;0.70;;;;;;;;;;5051441;28;21030;-83
2022/11/15 05:11:40;;;;;;;0.70;0.70;;;;;;;;;;5056779;28;20903;-83
2022/11/15 05:14:25;;;;;;;0.70;0.60;;;;;;;;;;5065132;28;20430;-83
2022/11/15 05:17:13;;;;;;;0.80;0.80;;;;;;;;;;5050461;28;20508;-82
2022/11/15 05:20:01;;;;;;;0.90;0.90;;;;;;;;;;5065486;28;20441;-82
2022/11/15 05:22:47;;;;;;;0.70;0.60;;;;;;;;;;5063543;28;20437;-82
2022/11/15 05:25:33;;;;;;;0.70;0.70;;;;;;;;;;5066015;28;20481;-82
2022/11/15 05:28:18;;;;;;;1.23;1.13;;;;;;;;;;5061755;28;20440;-83
2022/11/15 05:31:04;;;;;;;0.80;0.77;;;;;;;;;;5053435;28;20427;-82
2022/11/15 05:33:51;;;;;;;1.07;0.97;;;;;;;;;;5057035;28;20903;-83
2022/11/15 05:36:40;;;;;;;0.70;0.70;;;;;;;;;;5058275;28;20827;-82
2022/11/15 05:39:25;;;;;;;1.63;1.53;;;;;;;;;;5070694;28;20447;-82
2022/11/15 05:42:12;;;;;;;1.77;1.40;;;;;;;;;;5054979;28;20473;-82
2022/11/15 05:44:59;;;;;;;0.73;0.73;;;;;;;;;;5058089;28;20566;-81
2022/11/15 05:47:45;;;;;;;0.80;0.80;;;;;;;;;;5059389;28;20443;-82
2022/11/15 05:50:30;;;;;;;0.77;0.77;;;;;;;;;;5056429;28;20608;-82
2022/11/15 05:53:19;;;;;;;0.70;0.60;;;;;;;;;;5050150;28;21357;-81
2022/11/15 05:56:06;;;;;;;0.70;0.70;;;;;;;;;;5041019;28;20445;-81
2022/11/15 05:58:52;;;;;;;1.37;1.27;;;;;;;;;;5065289;28;20608;-84
2022/11/15 06:01:47;;;;;;;0.70;0.70;;;;;;;;;;5065198;28;20464;-80
2022/11/15 06:04:35;;;;;;;0.80;0.70;;;;;;;;;;5070748;28;20491;-82
2022/11/15 06:07:20;;;;;;;2.60;1.90;;;;;;;;;;5052398;28;20430;-81
2022/11/15 06:10:09;;;;;;;0.70;0.70;;;;;;;;;;5052512;28;20425;-83
2022/11/15 06:12:56;;;;;;;0.70;0.70;;;;;;;;;;5042416;28;20783;-83
2022/11/15 06:15:42;;;;;;;0.90;0.90;;;;;;;;;;5054141;28;20427;-81
2022/11/15 06:18:28;;;;;;;0.90;0.90;;;;;;;;;;5054181;28;20420;-81
2022/11/15 06:21:14;;;;;;;0.70;0.70;;;;;;;;;;5065552;28;20825;-81
2022/11/15 06:23:59;;;;;;;0.70;0.63;;;;;;;;;;5055916;28;20456;-82
2022/11/15 06:26:46;;;;;;;1.57;1.47;;;;;;;;;;5059748;28;20783;-82
2022/11/15 06:29:33;;;;;;;1.00;1.00;;;;;;;;;;5073376;28;20658;-82
2022/11/15 06:32:20;;;;;;;0.80;0.80;;;;;;;;;;5066540;28;20482;-82
2022/11/15 06:35:06;;;;;;;0.67;0.60;;;;;;;;;;5057746;28;20441;-82
2022/11/15 06:37:51;;;;;;;0.73;0.70;;;;;;;;;;5060977;28;20488;-82
2022/11/15 06:40:37;;;;;;;0.70;0.60;;;;;;;;;;5060768;28;20440;-82
2022/11/15 06:43:24;;;;;;;0.70;0.60;;;;;;;;;;5066480;28;20796;-81
2022/11/15 06:46:09;;;;;;;0.70;0.70;;;;;;;;;;5067173;28;20513;-81
2022/11/15 06:48:55;;;;;;;2.93;2.10;;;;;;;;;;5056558;28;20408;-81
2022/11/15 06:51:42;;;;;;;1.03;0.97;;;;;;;;;;5065529;28;20437;-80
2022/11/15 06:54:28;;;;;;;0.70;0.70;;;;;;;;;;5057017;28;20447;-82
2022/11/15 06:57:13;;;;;;;0.70;0.60;;;;;;;;;;5069599;28;20434;-82
2022/11/15 07:00:00;;;;;;;1.30;1.20;;;;;;;;;;5054477;28;20457;-79
2022/11/15 07:02:47;;;;;;;0.70;0.70;;;;;;;;;;5058842;28;20460;-82
2022/11/15 07:05:33;;;;;;;0.63;0.60;;;;;;;;;;5068084;28;20469;-80
2022/11/15 07:08:19;;;;;;;0.70;0.70;;;;;;;;;;5062003;28;20446;-80
2022/11/15 07:11:07;;;;;;;0.80;0.80;;;;;;;;;;5058924;28;20415;-81
2022/11/15 07:13:53;;;;;;;0.70;0.70;;;;;;;;;;5057584;28;21024;-81
2022/11/15 07:16:40;;;;;;;0.70;0.60;;;;;;;;;;5057506;28;20418;-80
2022/11/15 07:19:26;;;;;;;0.70;0.70;;;;;;;;;;5052764;28;20531;-80
2022/11/15 07:22:13;;;;;;;0.70;0.70;;;;;;;;;;5061391;28;20592;-80
2022/11/15 07:24:59;;;;;;;0.70;0.70;;;;;;;;;;5056301;28;20431;-81
2022/11/15 07:27:53;;;;;;;0.70;0.70;;;;;;;;;;5057644;28;20574;-82
2022/11/15 07:30:39;;;;;;;0.70;0.70;;;;;;;;;;5057287;28;20503;-80
2022/11/15 07:33:31;;;;;;;0.93;0.87;;;;;;;;;;5067114;28;20475;-79
2022/11/15 07:36:17;;;;;;;0.70;0.70;;;;;;;;;;5061513;28;20468;-80
2022/11/15 07:39:06;;;;;;;0.70;0.70;;;;;;;;;;5056794;28;20439;-78
2022/11/15 07:42:52;;;;;;;0.70;0.70;;;;;;;;;;5052414;28;20992;-78
2022/11/15 07:44:57;;;;;;;3.70;2.90;;;;;;;;;;5061066;28;20436;-80
2022/11/15 07:47:45;;;;;;;0.70;0.70;;;;;;;;;;5064065;28;20426;-80
2022/11/15 07:50:36;;;;;;;2.00;1.13;;;;;;;;;;5066878;28;20448;-79
2022/11/15 07:53:22;;;;;;;0.70;0.70;;;;;;;;;;5059236;28;20793;-80
2022/11/15 07:56:08;;;;;;;0.67;0.60;;;;;;;;;;5074534;28;20466;-79
2022/11/15 07:58:54;;;;;;;0.70;0.70;;;;;;;;;;5053819;28;21023;-80
2022/11/15 08:01:39;;;;;;;0.80;0.80;;;;;;;;;;5068744;28;20461;-80
2022/11/15 08:04:25;;;;;;;0.70;0.70;;;;;;;;;;5070751;28;20422;-81
2022/11/15 08:07:12;;;;;;;0.70;0.60;;;;;;;;;;5056033;28;20517;-79
2022/11/15 08:10:00;;;;;;;0.70;0.60;;;;;;;;;;5070002;28;20430;-79
2022/11/15 08:12:47;;;;;;;0.70;0.60;;;;;;;;;;5052940;28;21226;-80
2022/11/15 08:15:33;;;;;;;0.73;0.73;;;;;;;;;;5064651;28;20548;-82
2022/11/15 08:18:19;;;;;;;1.27;1.17;;;;;;;;;;5063147;28;20437;-82
2022/11/15 08:21:05;;;;;;;0.90;0.90;;;;;;;;;;5066389;28;20457;-84
2022/11/15 08:23:52;;;;;;;0.70;0.67;;;;;;;;;;5054235;28;20651;-81
2022/11/15 08:26:39;;;;;;;1.07;0.97;;;;;;;;;;5051470;28;20967;-81
2022/11/15 08:29:26;;;;;;;0.70;0.70;;;;;;;;;;5066026;28;20417;-82
2022/11/15 08:32:15;;;;;;;0.90;0.90;;;;;;;;;;5053883;28;20423;-85
2022/11/15 08:35:04;;;;;;;1.07;1.00;;;;;;;;;;5058079;28;20927;-84
2022/11/15 08:37:51;;;;;;;0.70;0.70;;;;;;;;;;5066501;28;20469;-83
2022/11/15 08:40:38;;;;;;;0.70;0.70;;;;;;;;;;5064728;28;20430;-81
2022/11/15 08:43:24;;;;;;;0.80;0.80;;;;;;;;;;5068819;28;20529;-82
2022/11/15 08:46:11;;;;;;;0.70;0.70;;;;;;;;;;5056673;28;20417;-82
2022/11/15 08:48:57;;;;;;;0.70;0.70;;;;;;;;;;5055096;28;20505;-83
2022/11/15 08:51:42;;;;;;;0.70;0.60;;;;;;;;;;5059608;28;20463;-82
2022/11/15 08:54:27;;;;;;;0.70;0.60;;;;;;;;;;5052899;28;20457;-83
2022/11/15 08:57:15;;;;;;;0.70;0.70;;;;;;;;;;5050176;28;20450;-82
2022/11/15 09:00:00;;;;;;;0.70;0.70;;;;;;;;;;5053654;28;20554;-84
2022/11/15 09:02:47;;;;;;;0.70;0.70;;;;;;;;;;5065718;28;20503;-83
2022/11/15 09:05:35;;;;;;;0.70;0.70;;;;;;;;;;5071775;28;20459;-81
2022/11/15 09:08:20;;;;;;;0.80;0.80;;;;;;;;;;5065663;28;20415;-81
2022/11/15 09:11:27;;;;;;;0.70;0.70;;;;;;;;;;5057797;28;20846;-82
2022/11/15 09:14:14;;;;;;;0.70;0.70;;;;;;;;;;5068457;28;20522;-83
2022/11/15 09:17:01;;;;;;;0.70;0.70;;;;;;;;;;5072471;28;20947;-81
2022/11/15 09:19:46;;;;;;;0.70;0.70;;;;;;;;;;5061495;28;21065;-82
2022/11/15 09:22:31;;;;;;;1.77;1.67;;;;;;;;;;5060963;28;20828;-84
2022/11/15 09:25:17;;;;;;;0.70;0.70;;;;;;;;;;5065902;28;20445;-85
2022/11/15 09:28:07;;;;;;;0.70;0.70;;;;;;;;;;5071449;28;20423;-85
2022/11/15 09:30:57;;;;;;;0.73;0.70;;;;;;;;;;5070651;28;20440;-83
2022/11/15 09:33:43;;;;;;;0.80;0.80;;;;;;;;;;5058884;28;20468;-83
2022/11/15 09:36:29;;;;;;;0.80;0.80;;;;;;;;;;5062306;28;20832;-83
2022/11/15 09:39:14;;;;;;;0.83;0.83;;;;;;;;;;5059173;28;20461;-85
2022/11/15 09:42:18;;;;;;;0.70;0.60;;;;;;;;;;5057612;28;20456;-85
2022/11/15 09:45:10;;;;;;;0.70;0.70;;;;;;;;;;5065223;28;20430;-82
2022/11/15 09:48:03;;;;;;;0.80;0.80;;;;;;;;;;5048488;28;20442;-80
2022/11/15 09:51:04;;;;;;;0.80;0.80;;;;;;;;;;5030187;28;20489;-82
2022/11/15 09:53:35;;;;;;;0.70;0.70;;;;;;;;;;5047482;28;20497;-83
2022/11/15 09:56:24;;;;;;;0.70;0.70;;;;;;;;;;5057093;28;20443;-85
2022/11/15 09:58:57;;;;;;;0.70;0.70;;;;;;;;;;5072610;28;20439;-82
2022/11/15 10:01:33;;;;;;;0.70;0.60;;;;;;;;;;5023984;28;20550;-82
2022/11/15 10:04:02;;;;;;;0.70;0.60;;;;;;;;;;5043875;28;20966;-81
2022/11/15 10:06:43;;;;;;;0.70;0.70;;;;;;;;;;5059430;28;20456;-81
2022/11/15 10:09:13;;;;;;;0.70;0.70;;;;;;;;;;5048385;28;20455;-82
2022/11/15 10:11:41;;;;;;;0.70;0.60;;;;;;;;;;5040577;28;20526;-82
2022/11/15 10:14:11;;;;;;;0.70;0.60;;;;;;;;;;5046402;28;20504;-81
2022/11/15 10:16:54;;;;;;;0.70;0.60;;;;;;;;;;5056274;28;20446;-81
2022/11/15 10:19:28;;;;;;;0.70;0.60;;;;;;;;;;5041867;28;20860;-81
2022/11/15 10:22:10;;;;;;;0.80;0.80;;;;;;;;;;5038007;28;20499;-82
2022/11/15 10:24:42;;;;;;;0.70;0.70;;;;;;;;;;5065021;28;20425;-75
2022/11/15 10:27:11;;;;;;;0.80;0.70;;;;;;;;;;5057722;28;20432;-77
2022/11/15 10:29:42;;;;;;;0.70;0.70;;;;;;;;;;5047426;28;20452;-80
2022/11/15 10:32:10;;;;;;;0.80;0.73;;;;;;;;;;5050635;28;20833;-80
2022/11/15 10:34:38;;;;;;;0.70;0.70;;;;;;;;;;5040862;28;20806;-82
2022/11/15 10:37:05;;;;;;;0.70;0.70;;;;;;;;;;5039090;28;21342;-78
2022/11/15 10:39:33;;;;;;;0.70;0.60;;;;;;;;;;5065520;28;20446;-82
2022/11/15 10:42:14;;;;;;;0.70;0.70;;;;;;;;;;5058891;28;20460;-82
2022/11/15 10:44:44;;;;;;;0.73;0.73;;;;;;;;;;5047171;28;20956;-80
2022/11/15 10:47:32;;;;;;;0.70;0.70;;;;;;;;;;5051518;28;20626;-84
2022/11/15 10:50:26;;;;;;;0.70;0.70;;;;;;;;;;5038765;28;20466;-78
2022/11/15 10:52:53;;;;;;;0.70;0.60;;;;;;;;;;5052230;28;20466;-80
2022/11/15 10:55:25;;;;;;;0.80;0.80;;;;;;;;;;5056282;28;20450;-83
2022/11/15 10:57:53;;;;;;;0.70;0.60;;;;;;;;;;5057097;28;20514;-79
2022/11/15 11:00:28;;;;;;;0.80;0.70;;;;;;;;;;5061170;28;20435;-80
2022/11/15 11:02:59;;;;;;;0.70;0.70;;;;;;;;;;5074745;28;20470;-81
2022/11/15 11:05:32;;;;;;;0.70;0.60;;;;;;;;;;5043548;28;20932;-81
2022/11/15 11:08:20;;;;;;;0.70;0.60;;;;;;;;;;5040608;28;20468;-80
2022/11/15 11:10:56;;;;;;;0.70;0.60;;;;;;;;;;5054604;28;20427;-83
2022/11/15 11:13:30;;;;;;;0.70;0.60;;;;;;;;;;5040770;28;20509;-79
2022/11/15 11:15:59;;;;;;;0.70;0.70;;;;;;;;;;5051440;28;20796;-80
2022/11/15 11:18:31;;;;;;;0.70;0.60;;;;;;;;;;5056993;28;20513;-81
2022/11/15 11:21:02;;;;;;;0.70;0.70;;;;;;;;;;5059779;28;20999;-83
2022/11/15 11:23:38;;;;;;;0.70;0.60;;;;;;;;;;5046016;28;20541;-84
2022/11/15 11:26:15;;;;;;;0.70;0.70;;;;;;;;;;5056098;28;20479;-83
2022/11/15 11:28:48;;;;;;;0.70;0.70;;;;;;;;;;5050950;28;20461;-83
2022/11/15 11:31:19;;;;;;;0.70;0.70;;;;;;;;;;5050092;28;20439;-86
2022/11/15 11:33:50;;;;;;;0.80;0.80;;;;;;;;;;5059004;28;20447;-82
2022/11/15 11:36:26;;;;;;;0.80;0.70;;;;;;;;;;5058787;28;20975;-83
2022/11/15 11:38:58;;;;;;;0.70;0.70;;;;;;;;;;5067275;28;20482;-85
2022/11/15 11:41:50;;;;;;;0.70;0.70;;;;;;;;;;5055652;28;20479;-83
2022/11/15 11:44:22;;;;;;;0.70;0.70;;;;;;;;;;5061153;28;20876;-81
2022/11/15 11:46:53;;;;;;;2.73;2.53;;;;;;;;;;5058203;28;20854;-81
2022/11/15 11:49:27;;;;;;;0.80;0.80;;;;;;;;;;5054816;28;20840;-79
2022/11/15 11:51:59;;;;;;;0.73;0.70;;;;;;;;;;5059445;28;20471;-78
2022/11/15 11:54:30;;;;;;;0.77;0.73;;;;;;;;;;5053821;28;20455;-82
2022/11/15 11:56:59;;;;;;;0.73;0.73;;;;;;;;;;5040302;28;20455;-84
2022/11/15 11:59:31;;;;;;;0.70;0.70;;;;;;;;;;5046621;28;20463;-80
2022/11/15 12:02:02;;;;;;;0.70;0.70;;;;;;;;;;5058041;28;20438;-80
2022/11/15 12:04:34;;;;;;;0.80;0.70;;;;;;;;;;5057392;28;20483;-81
2022/11/15 12:07:10;;;;;;;0.70;0.70;;;;;;;;;;5035866;28;20480;-86
2022/11/15 12:09:38;;;;;;;0.70;0.70;;;;;;;;;;5035902;28;20495;-80
2022/11/15 12:12:08;;;;;;;0.70;0.70;;;;;;;;;;5049095;28;20468;-83
2022/11/15 12:14:42;;;;;;;3.27;0.93;;;;;;;;;;5042291;28;20639;-82
2022/11/15 12:17:12;;;;;;;0.87;0.87;;;;;;;;;;5058868;28;20427;-81
2022/11/15 12:19:39;;;;;;;0.73;0.73;;;;;;;;;;5031303;28;20450;-81
2022/11/15 12:22:10;;;;;;;1.00;0.90;;;;;;;;;;5055555;28;20887;-82
2022/11/15 12:24:39;;;;;;;0.70;0.70;;;;;;;;;;5043268;28;20443;-83
2022/11/15 12:27:12;;;;;;;0.80;0.80;;;;;;;;;;5055641;28;20456;-81
2022/11/15 12:29:40;;;;;;;0.73;0.70;;;;;;;;;;5052131;28;20524;-83
2022/11/15 12:32:16;;;;;;;0.70;0.70;;;;;;;;;;5055658;28;20538;-84
2022/11/15 12:34:44;;;;;;;0.70;0.70;;;;;;;;;;5037157;28;20514;-82
2022/11/15 12:37:29;;;;;;;0.70;0.70;;;;;;;;;;5063239;28;20462;-86
2022/11/15 12:40:05;;;;;;;0.70;0.70;;;;;;;;;;5054016;28;20521;-84
2022/11/15 12:42:39;;;;;;;0.70;0.70;;;;;;;;;;5046856;28;20763;-82
2022/11/15 12:45:24;;;;;;;0.70;0.60;;;;;;;;;;5057669;28;21007;-82
2022/11/15 12:47:51;;;;;;;0.70;0.70;;;;;;;;;;5044642;28;20822;-85
2022/11/15 12:50:33;;;;;;;0.80;0.73;;;;;;;;;;5034533;28;21022;-81
2022/11/15 12:53:26;;;;;;;0.70;0.70;;;;;;;;;;5043469;28;20514;-81
2022/11/15 12:58:55;;;;;;;0.70;0.70;;;;;;;;;;5101692;27;20582;-83
2022/11/15 13:01:44;;;;;;;0.70;0.67;;;;;;;;;;5103647;28;20474;-83
2022/11/15 13:04:14;;;;;;;0.70;0.70;;;;;;;;;;5071968;28;20954;-81
2022/11/15 13:06:43;;;;;;;0.70;0.70;;;;;;;;;;5098118;28;20551;-80
2022/11/15 13:09:28;;;;;;;0.70;0.70;;;;;;;;;;5099912;28;20446;-82
2022/11/15 13:11:55;;;;;;;0.70;0.70;;;;;;;;;;5081591;28;20531;-82
2022/11/15 13:14:41;;;;;;;0.80;0.80;;;;;;;;;;5097549;28;20864;-81
2022/11/15 13:17:29;;;;;;;0.70;0.70;;;;;;;;;;5103757;28;20505;-86
2022/11/15 13:20:03;;;;;;;0.80;0.80;;;;;;;;;;5069887;28;20571;-83
2022/11/15 13:25:39;;;;;;;0.70;0.70;;;;;;;;;;5076977;28;20444;-83
2022/11/15 13:28:10;;;;;;;0.80;0.80;;;;;;;;;;5094527;28;20478;-83
2022/11/15 13:30:37;;;;;;;0.70;0.70;;;;;;;;;;5099087;28;20427;-84
2022/11/15 13:33:08;;;;;;;0.70;0.70;;;;;;;;;;5093865;28;20503;-82
2022/11/15 13:35:38;;;;;;;0.70;0.70;;;;;;;;;;5104551;28;21105;-83
2022/11/15 13:38:05;;;;;;;0.70;0.70;;;;;;;;;;5085771;28;20475;-81
2022/11/15 13:40:34;;;;;;;0.80;0.70;;;;;;;;;;5085849;28;20530;-84
2022/11/15 13:43:13;;;;;;;0.80;0.77;;;;;;;;;;5098463;28;20543;-82
2022/11/15 13:45:42;;;;;;;0.80;0.70;;;;;;;;;;5069663;28;20468;-85
2022/11/15 13:48:09;;;;;;;0.70;0.70;;;;;;;;;;5098754;28;20453;-83
2022/11/15 13:50:38;;;;;;;0.70;0.70;;;;;;;;;;5084953;28;20465;-83
2022/11/15 13:53:05;;;;;;;0.90;0.90;;;;;;;;;;5102464;28;20534;-81
2022/11/15 13:55:34;;;;;;;0.80;0.80;;;;;;;;;;5101754;28;20461;-86
2022/11/15 13:58:05;;;;;;;0.80;0.80;;;;;;;;;;5106143;28;20577;-85
2022/11/15 14:00:35;;;;;;;0.80;0.70;;;;;;;;;;5081546;28;21536;-82
2022/11/15 14:03:24;;;;;;;0.70;0.70;;;;;;;;;;5104033;28;20501;-84
2022/11/15 14:06:03;;;;;;;0.70;0.70;;;;;;;;;;5066569;28;20465;-84
2022/11/15 14:08:30;;;;;;;0.70;0.70;;;;;;;;;;5077122;28;20546;-84
2022/11/15 14:11:13;;;;;;;0.80;0.70;;;;;;;;;;5067888;28;20457;-83
2022/11/15 14:13:41;;;;;;;0.70;0.70;;;;;;;;;;5079527;28;20458;-83
2022/11/15 14:16:19;;;;;;;0.70;0.70;;;;;;;;;;5088874;28;20442;-83
2022/11/15 14:18:47;;;;;;;0.77;0.77;;;;;;;;;;5084155;28;20577;-79
2022/11/15 14:21:16;;;;;;;0.80;0.80;;;;;;;;;;5085669;28;20462;-81
2022/11/15 14:23:43;;;;;;;0.70;0.70;;;;;;;;;;5070702;28;20532;-86
2022/11/15 14:26:28;;;;;;;0.80;0.73;;;;;;;;;;5065495;28;20443;-84
2022/11/15 14:28:55;;;;;;;0.80;0.80;;;;;;;;;;5073964;28;20462;-83
2022/11/15 14:31:23;;;;;;;1.30;1.20;;;;;;;;;;5078252;28;20439;-82
2022/11/15 14:33:50;;;;;;;0.70;0.70;;;;;;;;;;5069712;28;20462;-86
2022/11/15 14:36:20;;;;;;;0.80;0.80;;;;;;;;;;5090580;28;20455;-85
2022/11/15 14:38:47;;;;;;;0.70;0.70;;;;;;;;;;5068811;28;20994;-84
2022/11/15 14:41:17;;;;;;;0.80;0.80;;;;;;;;;;5080354;28;20434;-84
2022/11/15 14:43:45;;;;;;;0.80;0.73;;;;;;;;;;5066741;28;20546;-83
2022/11/15 14:46:14;;;;;;;0.70;0.60;;;;;;;;;;5080099;28;20451;-83
2022/11/15 14:48:40;;;;;;;0.80;0.80;;;;;;;;;;5081394;28;20588;-83
2022/11/15 14:51:12;;;;;;;0.70;0.70;;;;;;;;;;5067904;28;20474;-79
2022/11/15 14:53:40;;;;;;;0.80;0.80;;;;;;;;;;5076186;28;20975;-83
2022/11/15 14:56:07;;;;;;;0.70;0.70;;;;;;;;;;5084091;28;20449;-81
2022/11/15 14:58:35;;;;;;;0.70;0.70;;;;;;;;;;5084113;28;20481;-82
2022/11/15 15:01:02;;;;;;;0.70;0.60;;;;;;;;;;5080456;28;20439;-82
2022/11/15 15:03:29;;;;;;;0.70;0.70;;;;;;;;;;5083042;28;20921;-83
2022/11/15 15:05:56;;;;;;;0.80;0.73;;;;;;;;;;5085658;28;20509;-82
2022/11/15 15:08:24;;;;;;;0.80;0.80;;;;;;;;;;5087805;28;20791;-85
2022/11/15 15:10:53;;;;;;;0.90;0.90;;;;;;;;;;5064760;28;20788;-85
2022/11/15 15:13:21;;;;;;;0.70;0.70;;;;;;;;;;5084420;28;20425;-85
2022/11/15 15:15:49;;;;;;;0.70;0.70;;;;;;;;;;5086155;28;20925;-83
2022/11/15 15:18:18;;;;;;;0.70;0.60;;;;;;;;;;5078288;28;20864;-84
2022/11/15 15:20:51;;;;;;;0.70;0.70;;;;;;;;;;5056722;28;20469;-82
2022/11/15 15:23:19;;;;;;;0.80;0.80;;;;;;;;;;5073746;28;20451;-87
2022/11/15 15:25:48;;;;;;;0.70;0.60;;;;;;;;;;5075325;28;20946;-85
2022/11/15 15:28:18;;;;;;;0.70;0.70;;;;;;;;;;5066715;28;20520;-84
2022/11/15 15:30:45;;;;;;;0.80;0.80;;;;;;;;;;5066719;28;20450;-85
2022/11/15 15:33:13;;;;;;;0.80;0.80;;;;;;;;;;5082831;28;20859;-84
2022/11/15 15:35:40;;;;;;;0.70;0.70;;;;;;;;;;5088812;28;20544;-84
2022/11/15 15:38:08;;;;;;;0.80;0.80;;;;;;;;;;5084220;28;20575;-85
2022/11/15 15:40:35;;;;;;;0.70;0.70;;;;;;;;;;5077065;28;20545;-83
2022/11/15 15:43:04;;;;;;;0.80;0.77;;;;;;;;;;5077310;28;20443;-83
2022/11/15 15:45:35;;;;;;;0.70;0.70;;;;;;;;;;5087901;28;20429;-83
2022/11/15 15:48:02;;;;;;;0.80;0.80;;;;;;;;;;5070946;28;20764;-85
2022/11/15 15:50:32;;;;;;;0.70;0.70;;;;;;;;;;5085764;28;21021;-85
2022/11/15 15:52:59;;;;;;;0.70;0.70;;;;;;;;;;5067080;28;20461;-83
2022/11/15 15:55:26;;;;;;;0.70;0.60;;;;;;;;;;5066217;28;20506;-82
2022/11/15 15:57:54;;;;;;;0.80;0.80;;;;;;;;;;5087609;28;20471;-83
2022/11/15 16:00:23;;;;;;;0.70;0.60;;;;;;;;;;5086582;28;20479;-85
2022/11/15 16:02:52;;;;;;;0.70;0.60;;;;;;;;;;5087958;28;20492;-82
2022/11/15 16:05:21;;;;;;;0.80;0.80;;;;;;;;;;5087485;28;20480;-84
2022/11/15 16:07:48;;;;;;;0.70;0.70;;;;;;;;;;5079763;28;20440;-82
2022/11/15 16:10:20;;;;;;;0.70;0.70;;;;;;;;;;5062050;28;20463;-83
2022/11/15 16:12:48;;;;;;;0.80;0.80;;;;;;;;;;5084943;28;20913;-82
2022/11/15 16:15:15;;;;;;;0.70;0.70;;;;;;;;;;5088963;28;20453;-82
2022/11/15 16:17:44;;;;;;;0.80;0.80;;;;;;;;;;5067826;28;20875;-85
2022/11/15 16:20:21;;;;;;;0.70;0.70;;;;;;;;;;5085879;28;20443;-84